Air Navigation Services of Czech Republic  
Last data update:  22.06.2018 05:17:08 UTC Česká verze
   METEO Page displayed:  22.06.2018 05:17:55 UTC  
help
METAR EDDB 220450Z 25013KT 9999 BKN025 11/06 Q1015 NOSIG=
METAR COR EDDC 220450Z 26008KT 210V290 9999 FEW036 SCT300 10/06 Q1018 NOSIG=
METAR EDDE 220450Z 25014KT 9999 FEW026 BKN043 09/05 Q1019 NOSIG=
METAR EDDF 220450Z 23005KT 200V270 9999 FEW025 SCT045 11/06 Q1024 NOSIG=
METAR EDDM 220450Z 30006KT 270V330 CAVOK 11/04 Q1023 NOSIG=
METAR EDDN 220450Z 27006KT 9999 FEW029 10/05 Q1022 NOSIG=
METAR EDDP 220450Z 25018KT 9999 FEW033 BKN048 11/06 Q1018 TEMPO 25015G25KT=
METAR EDDT 220450Z 27014KT 9999 BKN020 BKN050 11/07 Q1015 NOSIG=
METAR EDQM 220450Z 26007KT 210V300 9999 BKN039 07/02 Q1020=
METAR EPBY 220500Z 25015KT 9999 BKN017 11/06 Q1012 =
METAR EPGD 220500Z 25015KT 9999 FEW019 11/06 Q1008 =
METAR EPKK 220500Z 27007KT CAVOK 12/08 Q1016 =
METAR EPKT 220500Z 29006KT CAVOK 10/05 Q1017 =
METAR EPLL 220500Z 26012KT CAVOK 10/06 Q1015 =
METAR EPPO 220500Z 27013KT 9999 FEW021 11/06 Q1014 =
METAR EPRZ 220500Z 28007KT CAVOK 12/10 Q1015 =
METAR EPWA 220500Z 28010KT 240V320 9999 FEW013 12/06 Q1014 NOSIG=
METAR EPWR 220500Z 26011KT CAVOK 11/06 Q1017 =
METAR LHBP 220500Z 29013KT 9999 -RA FEW009 SCT032 BKN095 17/17 Q1014 NOSIG=
METAR LHSM 220445Z 35010KT 8000 RA FEW013 BKN050 OVC083 15/12 Q1017=
METAR LKCV 220500Z 25005KT 9999 SCT041 11/06 Q1019 NOSIG RMK BLU BLU=
METAR LKKB 220500Z 28007KT 250V320 9999 FEW037 12/05 Q1019 NOSIG RMK BLU BLU=
METAR LKKU 220500Z 35006KT 9999 FEW025 13/09 Q1018 RMK REG QNH 1015=
METAR LKKV 220500Z 25009KT 220V280 9999 SCT026 07/03 Q1020 RMK REG QNH 1015=
METAR LKLN 220500Z AUTO 25004KT 210V290 CAVOK 10/05 Q1021=
METAR LKMT 220500Z 07005KT CAVOK 12/07 Q1018 NOSIG RMK REG QNH 1015=
METAR LKNA 220500Z 32010KT CAVOK 10/03 Q1018 NOSIG RMK BLU BLU=
METAR LKPD 220500Z 28006KT CAVOK 12/04 Q1019 NOSIG RMK BLU BLU=
METAR LKPR 220500Z 26008KT 9999 FEW020 10/05 Q1019 NOSIG RMK REG QNH 1015=
METAR LKTB 220500Z 35005KT 300V020 CAVOK 13/03 Q1018 NOSIG RMK REG QNH 1015=
METAR LKVO NIL
METAR LOWI 220450Z 36003KT 9999 FEW015 SCT050 14/10 Q1021 NOSIG=
METAR LOWL 220450Z 27007KT 230V290 9999 FEW042 SCT060 15/06 Q1020 NOSIG=
METAR LOWS 220450Z 32005KT 9999 FEW040 BKN070 13/07 Q1022 NOSIG=
METAR LOWW 220450Z 32011KT 9999 FEW050 SCT060 BKN140 15/06 Q1018 NOSIG=
METAR LZIB 220500Z 34009KT 9999 FEW022 15/08 Q1017 NOSIG=
METAR LZKZ 220500Z 02018KT 9999 FEW015 SCT040 12/10 Q1014 NOSIG=
METAR LZPP 220500Z 35008KT CAVOK 13/08 Q1017=
METAR LZSL 220500Z 03008KT 9999 FEW015 14/07 Q1014=
METAR LZTT 220500Z 25007KT 210V290 9999 3000NW BCFG FEW004 BKN013 OVC020 10/08 Q1015 NOSIG=
METAR LZZI 220500Z 06003KT CAVOK 11/09 Q1017=